Terminal Aerodrome Forecast
Issued by NWS Jackson, MS

Current Version | Previous Version | Text Only | Print | Product List | Glossary On
Versions: 1 2 3 4 5 6 7 8 9 10 11 12
000
FTUS44 KJAN 181100
TAFJAN
TAF
KJAN 181129Z 1812/1912 02005KT P6SM BKN015 BKN060
     FM181400 03009KT 4SM BR OVC015
     FM181600 04010KT P6SM SCT020 BKN040
     FM181800 03010KT P6SM VCTS BKN050CB
     FM190200 04002KT P6SM SCT100=

USA.gov is the U.S. government's official web portal to all federal, state and local government web resources and services.